Big Piney, WY weather

Big Piney-Marbleton Airport (AMOS), Big Piney, WY: 7/30/2015 17:53
Visibility10 statute milesclear sky
View 7-Day Forecast
Area Summary
Sky/CloudsSky Clear
Weather [last 24 hours]None
Pressure30.41 in.Hg (1030 hPa)
3-hour Pressure Tendency0.03838 in.Hg (1.3 hPa) Decreasing, then steady, or decreasing then decreasing more slowly
Dew Point21.9 F (-5.6 C)
Relative Humidity11.5 %
Temperature80.1 F (26.7 C)red thermometer
Reading TimeMinimum to Maximum Temperature
6-hr ending 7/30@17:5372 F to 81 F (22.2 C to 27.2 C)
6-hr ending 7/30@11:5335.1 F to 73 F (1.7 C to 22.8 C)
6-hr ending 7/30@05:5336 F to 53.1 F (2.2 C to 11.7 C)
6-hr ending 7/29@23:5351.1 F to 75.9 F (10.6 C to 24.4 C)
24-hr ending 7/30@00:5332 F to 75.9 F (0 C to 24.4 C)
Wind3.45 MPH (3 KT) green arrow with no specific direction
Wind FromVariable (VRB Degrees)
Twilight Begins05:37Sunshine Yesterday
Sunrise06:09N/A
Sunset20:44
Twilight Ends21:16
METARKBPI 302353Z AUTO VRB03KT 10SM CLR 27/M06 A3041 RMK AO2 SLP214 T02671056 10272 20222 56013
Tags: